sensor_id;sensor_type;location;lat;lon;timestamp;P1;durP1;ratioP1;P2;durP2;ratioP2
3997;SDS011;61314;53.444;9.902;2023-05-17T00:01:01;22.43;;;6.30;;
3997;SDS011;61314;53.444;9.902;2023-05-17T00:03:28;36.03;;;6.47;;
3997;SDS011;61314;53.444;9.902;2023-05-17T00:05:55;22.40;;;6.47;;
3997;SDS011;61314;53.444;9.902;2023-05-17T00:08:22;29.83;;;8.13;;
3997;SDS011;61314;53.444;9.902;2023-05-17T00:10:49;25.77;;;6.20;;
3997;SDS011;61314;53.444;9.902;2023-05-17T00:13:16;30.10;;;5.50;;
3997;SDS011;61314;53.444;9.902;2023-05-17T00:15:43;21.93;;;6.20;;
3997;SDS011;61314;53.444;9.902;2023-05-17T00:18:10;19.07;;;5.37;;
3997;SDS011;61314;53.444;9.902;2023-05-17T00:20:37;14.60;;;5.10;;
3997;SDS011;61314;53.444;9.902;2023-05-17T00:23:04;24.27;;;5.97;;
3997;SDS011;61314;53.444;9.902;2023-05-17T00:25:31;19.37;;;5.10;;
3997;SDS011;61314;53.444;9.902;2023-05-17T00:27:58;21.00;;;5.80;;
3997;SDS011;61314;53.444;9.902;2023-05-17T00:30:25;19.57;;;5.40;;
3997;SDS011;61314;53.444;9.902;2023-05-17T00:32:52;29.13;;;6.30;;
3997;SDS011;61314;53.444;9.902;2023-05-17T00:35:19;16.50;;;5.00;;
3997;SDS011;61314;53.444;9.902;2023-05-17T00:37:46;18.27;;;4.87;;
3997;SDS011;61314;53.444;9.902;2023-05-17T00:40:14;16.30;;;4.37;;
3997;SDS011;61314;53.444;9.902;2023-05-17T00:42:41;30.13;;;5.87;;
3997;SDS011;61314;53.444;9.902;2023-05-17T00:45:08;14.83;;;4.80;;
3997;SDS011;61314;53.444;9.902;2023-05-17T00:47:36;20.43;;;6.03;;
3997;SDS011;61314;53.444;9.902;2023-05-17T00:50:03;22.87;;;4.57;;
3997;SDS011;61314;53.444;9.902;2023-05-17T00:52:31;16.35;;;5.55;;
3997;SDS011;61314;53.444;9.902;2023-05-17T00:54:58;30.67;;;5.73;;
3997;SDS011;61314;53.444;9.902;2023-05-17T00:57:25;19.67;;;4.73;;
3997;SDS011;61314;53.444;9.902;2023-05-17T00:59:54;18.60;;;4.50;;
3997;SDS011;61314;53.444;9.902;2023-05-17T01:02:21;20.13;;;5.20;;
3997;SDS011;61314;53.444;9.902;2023-05-17T01:04:48;22.53;;;5.40;;
3997;SDS011;61314;53.444;9.902;2023-05-17T01:07:16;13.90;;;5.03;;
3997;SDS011;61314;53.444;9.902;2023-05-17T01:09:43;28.83;;;7.13;;
3997;SDS011;61314;53.444;9.902;2023-05-17T01:15:04;32.93;;;5.57;;
3997;SDS011;61314;53.444;9.902;2023-05-17T01:17:35;27.20;;;5.13;;
3997;SDS011;61314;53.444;9.902;2023-05-17T01:22:52;14.33;;;3.90;;
3997;SDS011;61314;53.444;9.902;2023-05-17T01:25:39;16.47;;;4.93;;
3997;SDS011;61314;53.444;9.902;2023-05-17T01:28:07;22.60;;;5.17;;
3997;SDS011;61314;53.444;9.902;2023-05-17T01:30:35;27.07;;;4.60;;
3997;SDS011;61314;53.444;9.902;2023-05-17T01:33:03;27.23;;;4.90;;
3997;SDS011;61314;53.444;9.902;2023-05-17T01:35:30;23.43;;;4.07;;
3997;SDS011;61314;53.444;9.902;2023-05-17T01:37:57;17.07;;;3.70;;
3997;SDS011;61314;53.444;9.902;2023-05-17T01:40:24;13.03;;;4.50;;
3997;SDS011;61314;53.444;9.902;2023-05-17T01:43:03;17.85;;;4.35;;
3997;SDS011;61314;53.444;9.902;2023-05-17T01:45:36;24.52;;;4.35;;
3997;SDS011;61314;53.444;9.902;2023-05-17T01:48:14;26.92;;;4.93;;
3997;SDS011;61314;53.444;9.902;2023-05-17T01:50:41;25.47;;;4.20;;
3997;SDS011;61314;53.444;9.902;2023-05-17T01:53:10;14.32;;;4.00;;
3997;SDS011;61314;53.444;9.902;2023-05-17T01:55:42;18.67;;;4.05;;
3997;SDS011;61314;53.444;9.902;2023-05-17T01:58:11;17.88;;;5.15;;
3997;SDS011;61314;53.444;9.902;2023-05-17T02:00:38;23.52;;;4.18;;
3997;SDS011;61314;53.444;9.902;2023-05-17T02:03:11;17.47;;;4.10;;
3997;SDS011;61314;53.444;9.902;2023-05-17T02:05:38;16.83;;;3.80;;
3997;SDS011;61314;53.444;9.902;2023-05-17T02:08:05;22.27;;;6.07;;
3997;SDS011;61314;53.444;9.902;2023-05-17T02:10:32;17.60;;;4.30;;
3997;SDS011;61314;53.444;9.902;2023-05-17T02:12:59;16.00;;;3.33;;
3997;SDS011;61314;53.444;9.902;2023-05-17T02:15:26;30.17;;;4.25;;
3997;SDS011;61314;53.444;9.902;2023-05-17T02:17:53;14.83;;;3.17;;
3997;SDS011;61314;53.444;9.902;2023-05-17T02:20:21;19.80;;;4.35;;
3997;SDS011;61314;53.444;9.902;2023-05-17T02:22:48;28.13;;;4.72;;
3997;SDS011;61314;53.444;9.902;2023-05-17T02:25:15;19.13;;;4.22;;
3997;SDS011;61314;53.444;9.902;2023-05-17T02:27:42;32.87;;;5.80;;
3997;SDS011;61314;53.444;9.902;2023-05-17T02:30:09;16.75;;;4.90;;
3997;SDS011;61314;53.444;9.902;2023-05-17T02:32:37;21.53;;;4.03;;
3997;SDS011;61314;53.444;9.902;2023-05-17T02:35:05;25.98;;;5.10;;
3997;SDS011;61314;53.444;9.902;2023-05-17T02:37:32;18.13;;;3.42;;
3997;SDS011;61314;53.444;9.902;2023-05-17T02:39:59;25.40;;;4.50;;
3997;SDS011;61314;53.444;9.902;2023-05-17T02:42:26;24.20;;;4.53;;
3997;SDS011;61314;53.444;9.902;2023-05-17T02:44:53;16.45;;;3.85;;
3997;SDS011;61314;53.444;9.902;2023-05-17T02:47:22;13.07;;;3.20;;
3997;SDS011;61314;53.444;9.902;2023-05-17T02:49:49;24.70;;;3.90;;
3997;SDS011;61314;53.444;9.902;2023-05-17T02:52:17;23.60;;;3.63;;
3997;SDS011;61314;53.444;9.902;2023-05-17T02:54:44;22.47;;;3.50;;
3997;SDS011;61314;53.444;9.902;2023-05-17T02:57:11;21.13;;;3.85;;
3997;SDS011;61314;53.444;9.902;2023-05-17T02:59:38;17.63;;;4.05;;
3997;SDS011;61314;53.444;9.902;2023-05-17T03:02:05;22.58;;;3.30;;
3997;SDS011;61314;53.444;9.902;2023-05-17T03:04:32;19.92;;;4.00;;
3997;SDS011;61314;53.444;9.902;2023-05-17T03:06:59;19.40;;;3.35;;
3997;SDS011;61314;53.444;9.902;2023-05-17T03:09:26;13.95;;;3.63;;
3997;SDS011;61314;53.444;9.902;2023-05-17T03:11:55;19.33;;;3.75;;
3997;SDS011;61314;53.444;9.902;2023-05-17T03:14:22;15.63;;;3.45;;
3997;SDS011;61314;53.444;9.902;2023-05-17T03:16:49;11.50;;;2.85;;
3997;SDS011;61314;53.444;9.902;2023-05-17T03:19:16;14.43;;;4.20;;
3997;SDS011;61314;53.444;9.902;2023-05-17T03:21:43;28.30;;;3.72;;
3997;SDS011;61314;53.444;9.902;2023-05-17T03:24:10;15.73;;;3.53;;
3997;SDS011;61314;53.444;9.902;2023-05-17T03:26:37;15.48;;;3.70;;
3997;SDS011;61314;53.444;9.902;2023-05-17T03:29:04;14.98;;;3.38;;
3997;SDS011;61314;53.444;9.902;2023-05-17T03:31:31;15.35;;;3.03;;
3997;SDS011;61314;53.444;9.902;2023-05-17T03:33:58;13.30;;;3.95;;
3997;SDS011;61314;53.444;9.902;2023-05-17T03:36:25;15.55;;;3.83;;
3997;SDS011;61314;53.444;9.902;2023-05-17T03:38:53;17.08;;;3.40;;
3997;SDS011;61314;53.444;9.902;2023-05-17T03:41:20;14.67;;;3.67;;
3997;SDS011;61314;53.444;9.902;2023-05-17T03:43:47;15.23;;;3.03;;
3997;SDS011;61314;53.444;9.902;2023-05-17T03:46:14;26.23;;;3.30;;
3997;SDS011;61314;53.444;9.902;2023-05-17T03:48:41;14.00;;;2.63;;
3997;SDS011;61314;53.444;9.902;2023-05-17T03:51:08;30.53;;;3.37;;
3997;SDS011;61314;53.444;9.902;2023-05-17T03:53:35;18.23;;;2.97;;
3997;SDS011;61314;53.444;9.902;2023-05-17T03:56:08;16.07;;;2.53;;
3997;SDS011;61314;53.444;9.902;2023-05-17T03:58:35;13.88;;;3.70;;
3997;SDS011;61314;53.444;9.902;2023-05-17T04:01:03;17.97;;;3.00;;
3997;SDS011;61314;53.444;9.902;2023-05-17T04:03:30;17.55;;;3.10;;
3997;SDS011;61314;53.444;9.902;2023-05-17T04:06:04;12.70;;;2.80;;
3997;SDS011;61314;53.444;9.902;2023-05-17T04:08:34;11.55;;;2.78;;
3997;SDS011;61314;53.444;9.902;2023-05-17T04:11:01;13.20;;;3.00;;
3997;SDS011;61314;53.444;9.902;2023-05-17T04:13:35;24.63;;;3.60;;
3997;SDS011;61314;53.444;9.902;2023-05-17T04:16:03;15.38;;;3.05;;
3997;SDS011;61314;53.444;9.902;2023-05-17T04:18:33;13.27;;;2.97;;
3997;SDS011;61314;53.444;9.902;2023-05-17T04:21:01;12.30;;;3.20;;
3997;SDS011;61314;53.444;9.902;2023-05-17T04:23:28;15.93;;;3.03;;
3997;SDS011;61314;53.444;9.902;2023-05-17T04:25:55;18.87;;;3.30;;
3997;SDS011;61314;53.444;9.902;2023-05-17T04:28:23;14.30;;;2.45;;
3997;SDS011;61314;53.444;9.902;2023-05-17T04:30:51;20.98;;;3.63;;
3997;SDS011;61314;53.444;9.902;2023-05-17T04:33:18;17.83;;;3.10;;
3997;SDS011;61314;53.444;9.902;2023-05-17T04:35:45;23.00;;;5.00;;
3997;SDS011;61314;53.444;9.902;2023-05-17T04:38:12;14.45;;;3.05;;
3997;SDS011;61314;53.444;9.902;2023-05-17T04:40:39;14.93;;;3.25;;
3997;SDS011;61314;53.444;9.902;2023-05-17T04:43:07;16.53;;;2.80;;
3997;SDS011;61314;53.444;9.902;2023-05-17T04:45:34;12.70;;;3.67;;
3997;SDS011;61314;53.444;9.902;2023-05-17T04:48:02;23.40;;;3.80;;
3997;SDS011;61314;53.444;9.902;2023-05-17T04:50:30;20.30;;;3.23;;
3997;SDS011;61314;53.444;9.902;2023-05-17T04:52:57;19.80;;;3.47;;
3997;SDS011;61314;53.444;9.902;2023-05-17T04:55:24;12.33;;;3.13;;
3997;SDS011;61314;53.444;9.902;2023-05-17T04:57:51;14.75;;;4.10;;
3997;SDS011;61314;53.444;9.902;2023-05-17T05:00:18;19.97;;;4.00;;
3997;SDS011;61314;53.444;9.902;2023-05-17T05:02:47;23.20;;;3.53;;
3997;SDS011;61314;53.444;9.902;2023-05-17T05:05:15;14.97;;;3.93;;
3997;SDS011;61314;53.444;9.902;2023-05-17T05:07:42;21.70;;;3.60;;
3997;SDS011;61314;53.444;9.902;2023-05-17T05:10:09;26.17;;;4.30;;
3997;SDS011;61314;53.444;9.902;2023-05-17T05:12:36;21.55;;;4.45;;
3997;SDS011;61314;53.444;9.902;2023-05-17T05:15:03;15.03;;;3.80;;
3997;SDS011;61314;53.444;9.902;2023-05-17T05:17:32;27.93;;;4.47;;
3997;SDS011;61314;53.444;9.902;2023-05-17T05:19:59;14.10;;;3.70;;
3997;SDS011;61314;53.444;9.902;2023-05-17T05:22:26;16.73;;;2.90;;
3997;SDS011;61314;53.444;9.902;2023-05-17T05:24:54;21.63;;;3.40;;
3997;SDS011;61314;53.444;9.902;2023-05-17T05:27:21;19.65;;;3.10;;
3997;SDS011;61314;53.444;9.902;2023-05-17T05:29:48;29.17;;;4.00;;
3997;SDS011;61314;53.444;9.902;2023-05-17T05:32:15;22.03;;;2.60;;
3997;SDS011;61314;53.444;9.902;2023-05-17T05:34:42;12.67;;;2.73;;
3997;SDS011;61314;53.444;9.902;2023-05-17T05:37:09;14.85;;;3.70;;
3997;SDS011;61314;53.444;9.902;2023-05-17T05:39:36;16.52;;;3.30;;
3997;SDS011;61314;53.444;9.902;2023-05-17T05:42:04;17.50;;;3.08;;
3997;SDS011;61314;53.444;9.902;2023-05-17T05:44:31;17.00;;;3.27;;
3997;SDS011;61314;53.444;9.902;2023-05-17T05:46:58;25.10;;;4.33;;
3997;SDS011;61314;53.444;9.902;2023-05-17T05:49:25;16.77;;;3.50;;
3997;SDS011;61314;53.444;9.902;2023-05-17T05:51:52;13.77;;;2.77;;
3997;SDS011;61314;53.444;9.902;2023-05-17T05:54:19;19.43;;;2.97;;
3997;SDS011;61314;53.444;9.902;2023-05-17T05:56:46;12.73;;;3.57;;
3997;SDS011;61314;53.444;9.902;2023-05-17T05:59:13;14.57;;;3.50;;
3997;SDS011;61314;53.444;9.902;2023-05-17T06:01:40;12.52;;;3.08;;
3997;SDS011;61314;53.444;9.902;2023-05-17T06:04:07;14.27;;;3.67;;
3997;SDS011;61314;53.444;9.902;2023-05-17T06:06:34;13.77;;;3.58;;
3997;SDS011;61314;53.444;9.902;2023-05-17T06:09:02;10.23;;;2.65;;
3997;SDS011;61314;53.444;9.902;2023-05-17T06:11:32;27.63;;;3.57;;
3997;SDS011;61314;53.444;9.902;2023-05-17T06:13:59;11.07;;;3.50;;
3997;SDS011;61314;53.444;9.902;2023-05-17T06:16:27;10.10;;;3.63;;
3997;SDS011;61314;53.444;9.902;2023-05-17T06:18:54;9.97;;;3.20;;
3997;SDS011;61314;53.444;9.902;2023-05-17T06:21:21;10.53;;;2.63;;
3997;SDS011;61314;53.444;9.902;2023-05-17T06:23:48;20.33;;;2.30;;
3997;SDS011;61314;53.444;9.902;2023-05-17T06:26:15;6.60;;;2.30;;
3997;SDS011;61314;53.444;9.902;2023-05-17T06:28:42;6.90;;;2.50;;
3997;SDS011;61314;53.444;9.902;2023-05-17T06:31:10;12.40;;;2.63;;
3997;SDS011;61314;53.444;9.902;2023-05-17T06:33:37;13.80;;;2.93;;
3997;SDS011;61314;53.444;9.902;2023-05-17T06:36:04;12.60;;;2.57;;
3997;SDS011;61314;53.444;9.902;2023-05-17T06:38:31;15.97;;;3.10;;
3997;SDS011;61314;53.444;9.902;2023-05-17T06:40:58;12.03;;;2.60;;
3997;SDS011;61314;53.444;9.902;2023-05-17T06:43:25;8.23;;;2.07;;
3997;SDS011;61314;53.444;9.902;2023-05-17T06:45:52;21.73;;;3.50;;
3997;SDS011;61314;53.444;9.902;2023-05-17T06:48:19;18.70;;;4.23;;
3997;SDS011;61314;53.444;9.902;2023-05-17T06:50:46;18.00;;;3.60;;
3997;SDS011;61314;53.444;9.902;2023-05-17T06:53:13;17.17;;;3.10;;
3997;SDS011;61314;53.444;9.902;2023-05-17T06:55:40;7.73;;;1.80;;
3997;SDS011;61314;53.444;9.902;2023-05-17T06:58:08;8.53;;;2.70;;
3997;SDS011;61314;53.444;9.902;2023-05-17T07:00:35;14.13;;;2.63;;
3997;SDS011;61314;53.444;9.902;2023-05-17T07:03:02;10.00;;;2.53;;
3997;SDS011;61314;53.444;9.902;2023-05-17T07:05:29;10.07;;;2.10;;
3997;SDS011;61314;53.444;9.902;2023-05-17T07:07:57;20.47;;;3.80;;
3997;SDS011;61314;53.444;9.902;2023-05-17T07:10:24;12.80;;;2.73;;
3997;SDS011;61314;53.444;9.902;2023-05-17T07:12:51;12.10;;;3.73;;
3997;SDS011;61314;53.444;9.902;2023-05-17T07:15:19;18.47;;;2.67;;
3997;SDS011;61314;53.444;9.902;2023-05-17T07:17:46;9.60;;;2.37;;
3997;SDS011;61314;53.444;9.902;2023-05-17T07:20:13;17.23;;;2.87;;
3997;SDS011;61314;53.444;9.902;2023-05-17T07:22:40;19.50;;;4.60;;
3997;SDS011;61314;53.444;9.902;2023-05-17T07:25:07;31.03;;;4.00;;
3997;SDS011;61314;53.444;9.902;2023-05-17T07:27:34;16.03;;;2.93;;
3997;SDS011;61314;53.444;9.902;2023-05-17T07:30:02;11.60;;;2.20;;
3997;SDS011;61314;53.444;9.902;2023-05-17T07:32:29;14.40;;;3.00;;
3997;SDS011;61314;53.444;9.902;2023-05-17T07:34:56;13.53;;;3.00;;
3997;SDS011;61314;53.444;9.902;2023-05-17T07:37:23;8.77;;;2.57;;
3997;SDS011;61314;53.444;9.902;2023-05-17T07:39:50;17.73;;;2.80;;
3997;SDS011;61314;53.444;9.902;2023-05-17T07:42:17;18.93;;;4.10;;
3997;SDS011;61314;53.444;9.902;2023-05-17T07:44:44;6.97;;;2.50;;
3997;SDS011;61314;53.444;9.902;2023-05-17T07:47:13;27.00;;;3.00;;
3997;SDS011;61314;53.444;9.902;2023-05-17T07:49:41;13.43;;;2.37;;
3997;SDS011;61314;53.444;9.902;2023-05-17T07:52:08;14.87;;;3.93;;
3997;SDS011;61314;53.444;9.902;2023-05-17T07:54:35;11.63;;;3.13;;
3997;SDS011;61314;53.444;9.902;2023-05-17T07:57:02;9.30;;;2.33;;
3997;SDS011;61314;53.444;9.902;2023-05-17T07:59:29;11.33;;;3.27;;
3997;SDS011;61314;53.444;9.902;2023-05-17T08:01:56;12.63;;;3.10;;
3997;SDS011;61314;53.444;9.902;2023-05-17T08:04:23;8.10;;;2.47;;
3997;SDS011;61314;53.444;9.902;2023-05-17T08:06:51;19.07;;;3.20;;
3997;SDS011;61314;53.444;9.902;2023-05-17T08:09:18;10.10;;;2.20;;
3997;SDS011;61314;53.444;9.902;2023-05-17T08:11:45;10.70;;;2.80;;
3997;SDS011;61314;53.444;9.902;2023-05-17T08:14:12;10.30;;;2.40;;
3997;SDS011;61314;53.444;9.902;2023-05-17T08:16:43;11.33;;;3.07;;
3997;SDS011;61314;53.444;9.902;2023-05-17T08:19:11;16.03;;;3.00;;
3997;SDS011;61314;53.444;9.902;2023-05-17T08:21:39;15.87;;;3.27;;
3997;SDS011;61314;53.444;9.902;2023-05-17T08:24:06;13.23;;;2.77;;
3997;SDS011;61314;53.444;9.902;2023-05-17T08:26:33;16.70;;;2.43;;
3997;SDS011;61314;53.444;9.902;2023-05-17T08:29:01;16.47;;;2.30;;
3997;SDS011;61314;53.444;9.902;2023-05-17T08:31:32;8.57;;;3.00;;
3997;SDS011;61314;53.444;9.902;2023-05-17T08:33:59;12.43;;;2.77;;
3997;SDS011;61314;53.444;9.902;2023-05-17T08:36:26;6.50;;;2.53;;
3997;SDS011;61314;53.444;9.902;2023-05-17T08:38:53;10.50;;;2.60;;
3997;SDS011;61314;53.444;9.902;2023-05-17T08:41:21;14.83;;;2.50;;
3997;SDS011;61314;53.444;9.902;2023-05-17T08:43:48;15.07;;;2.60;;
3997;SDS011;61314;53.444;9.902;2023-05-17T08:46:16;10.17;;;2.77;;
3997;SDS011;61314;53.444;9.902;2023-05-17T08:48:48;12.57;;;3.00;;
3997;SDS011;61314;53.444;9.902;2023-05-17T08:51:18;8.20;;;2.60;;
3997;SDS011;61314;53.444;9.902;2023-05-17T08:53:46;14.57;;;3.50;;
3997;SDS011;61314;53.444;9.902;2023-05-17T08:56:15;12.90;;;2.47;;
3997;SDS011;61314;53.444;9.902;2023-05-17T08:58:45;16.37;;;3.13;;
3997;SDS011;61314;53.444;9.902;2023-05-17T09:01:16;18.20;;;2.87;;
3997;SDS011;61314;53.444;9.902;2023-05-17T09:03:46;10.13;;;2.73;;
3997;SDS011;61314;53.444;9.902;2023-05-17T09:06:16;9.80;;;2.97;;
3997;SDS011;61314;53.444;9.902;2023-05-17T09:08:46;9.63;;;3.00;;
3997;SDS011;61314;53.444;9.902;2023-05-17T09:11:23;8.73;;;2.37;;
3997;SDS011;61314;53.444;9.902;2023-05-17T09:13:51;12.60;;;2.60;;
3997;SDS011;61314;53.444;9.902;2023-05-17T09:16:18;8.43;;;2.37;;
3997;SDS011;61314;53.444;9.902;2023-05-17T09:18:52;13.07;;;3.20;;
3997;SDS011;61314;53.444;9.902;2023-05-17T09:21:20;15.43;;;3.00;;
3997;SDS011;61314;53.444;9.902;2023-05-17T09:23:48;10.53;;;2.70;;
3997;SDS011;61314;53.444;9.902;2023-05-17T09:26:37;15.70;;;3.00;;
3997;SDS011;61314;53.444;9.902;2023-05-17T09:29:09;12.67;;;3.17;;
3997;SDS011;61314;53.444;9.902;2023-05-17T09:31:36;9.07;;;2.93;;
3997;SDS011;61314;53.444;9.902;2023-05-17T09:34:04;13.83;;;3.40;;
3997;SDS011;61314;53.444;9.902;2023-05-17T09:36:36;13.67;;;3.83;;
3997;SDS011;61314;53.444;9.902;2023-05-17T09:39:04;5.97;;;2.20;;
3997;SDS011;61314;53.444;9.902;2023-05-17T09:41:39;8.00;;;2.13;;
3997;SDS011;61314;53.444;9.902;2023-05-17T09:44:09;7.60;;;2.50;;
3997;SDS011;61314;53.444;9.902;2023-05-17T09:46:38;9.43;;;1.83;;
3997;SDS011;61314;53.444;9.902;2023-05-17T09:49:07;6.93;;;2.40;;
3997;SDS011;61314;53.444;9.902;2023-05-17T09:51:35;9.93;;;2.27;;
3997;SDS011;61314;53.444;9.902;2023-05-17T09:54:02;8.77;;;1.97;;
3997;SDS011;61314;53.444;9.902;2023-05-17T09:56:29;8.13;;;2.13;;
3997;SDS011;61314;53.444;9.902;2023-05-17T09:58:57;8.80;;;2.20;;
3997;SDS011;61314;53.444;9.902;2023-05-17T10:01:27;15.10;;;2.60;;
3997;SDS011;61314;53.444;9.902;2023-05-17T10:03:55;8.30;;;2.70;;
3997;SDS011;61314;53.444;9.902;2023-05-17T10:06:25;13.50;;;3.40;;
3997;SDS011;61314;53.444;9.902;2023-05-17T10:08:58;11.13;;;2.57;;
3997;SDS011;61314;53.444;9.902;2023-05-17T10:11:27;13.10;;;2.97;;
3997;SDS011;61314;53.444;9.902;2023-05-17T10:14:18;14.90;;;3.17;;
3997;SDS011;61314;53.444;9.902;2023-05-17T10:16:48;11.57;;;3.03;;
3997;SDS011;61314;53.444;9.902;2023-05-17T10:19:15;14.53;;;4.10;;
3997;SDS011;61314;53.444;9.902;2023-05-17T10:21:46;12.57;;;3.00;;
3997;SDS011;61314;53.444;9.902;2023-05-17T10:24:13;15.70;;;2.73;;
3997;SDS011;61314;53.444;9.902;2023-05-17T10:26:41;15.87;;;3.53;;
3997;SDS011;61314;53.444;9.902;2023-05-17T10:29:08;9.63;;;3.70;;
3997;SDS011;61314;53.444;9.902;2023-05-17T10:31:36;9.80;;;2.30;;
3997;SDS011;61314;53.444;9.902;2023-05-17T10:34:03;11.30;;;2.83;;
3997;SDS011;61314;53.444;9.902;2023-05-17T10:36:34;13.83;;;2.90;;
3997;SDS011;61314;53.444;9.902;2023-05-17T10:39:01;12.23;;;2.63;;
3997;SDS011;61314;53.444;9.902;2023-05-17T10:41:31;14.10;;;2.80;;
3997;SDS011;61314;53.444;9.902;2023-05-17T10:43:59;20.17;;;3.00;;
3997;SDS011;61314;53.444;9.902;2023-05-17T10:46:28;11.00;;;2.70;;
3997;SDS011;61314;53.444;9.902;2023-05-17T10:48:56;13.53;;;2.30;;
3997;SDS011;61314;53.444;9.902;2023-05-17T10:51:34;12.43;;;2.97;;
3997;SDS011;61314;53.444;9.902;2023-05-17T10:54:08;12.57;;;3.20;;
3997;SDS011;61314;53.444;9.902;2023-05-17T10:56:40;9.90;;;2.47;;
3997;SDS011;61314;53.444;9.902;2023-05-17T11:04:24;6.73;;;2.27;;
3997;SDS011;61314;53.444;9.902;2023-05-17T11:07:19;8.50;;;2.10;;
3997;SDS011;61314;53.444;9.902;2023-05-17T11:12:34;11.30;;;2.13;;
3997;SDS011;61314;53.444;9.902;2023-05-17T11:15:06;10.47;;;2.37;;
3997;SDS011;61314;53.444;9.902;2023-05-17T11:23:02;8.53;;;2.40;;
3997;SDS011;61314;53.444;9.902;2023-05-17T11:25:31;9.13;;;2.30;;
3997;SDS011;61314;53.444;9.902;2023-05-17T11:28:07;13.23;;;2.20;;
3997;SDS011;61314;53.444;9.902;2023-05-17T11:30:39;7.77;;;2.10;;
3997;SDS011;61314;53.444;9.902;2023-05-17T11:33:07;4.03;;;1.57;;
3997;SDS011;61314;53.444;9.902;2023-05-17T11:35:51;3.67;;;1.73;;
3997;SDS011;61314;53.444;9.902;2023-05-17T11:38:20;1.97;;;1.10;;
3997;SDS011;61314;53.444;9.902;2023-05-17T11:40:53;8.00;;;2.27;;
3997;SDS011;61314;53.444;9.902;2023-05-17T11:43:21;11.00;;;1.80;;
3997;SDS011;61314;53.444;9.902;2023-05-17T11:45:50;2.90;;;1.17;;
3997;SDS011;61314;53.444;9.902;2023-05-17T11:48:23;9.50;;;2.43;;
3997;SDS011;61314;53.444;9.902;2023-05-17T11:50:53;4.03;;;1.73;;
3997;SDS011;61314;53.444;9.902;2023-05-17T11:53:21;11.60;;;1.90;;
3997;SDS011;61314;53.444;9.902;2023-05-17T11:55:50;7.03;;;2.73;;
3997;SDS011;61314;53.444;9.902;2023-05-17T11:58:24;8.20;;;2.17;;
3997;SDS011;61314;53.444;9.902;2023-05-17T12:00:52;8.00;;;2.13;;
3997;SDS011;61314;53.444;9.902;2023-05-17T12:03:24;7.50;;;1.57;;
3997;SDS011;61314;53.444;9.902;2023-05-17T12:06:05;5.60;;;1.60;;
3997;SDS011;61314;53.444;9.902;2023-05-17T12:08:43;7.57;;;1.60;;
3997;SDS011;61314;53.444;9.902;2023-05-17T12:11:12;5.13;;;1.80;;
3997;SDS011;61314;53.444;9.902;2023-05-17T12:13:40;6.13;;;1.77;;
3997;SDS011;61314;53.444;9.902;2023-05-17T12:16:08;7.73;;;3.43;;
3997;SDS011;61314;53.444;9.902;2023-05-17T12:18:40;8.10;;;1.80;;
3997;SDS011;61314;53.444;9.902;2023-05-17T12:21:08;3.10;;;1.73;;
3997;SDS011;61314;53.444;9.902;2023-05-17T12:23:39;3.40;;;2.23;;
3997;SDS011;61314;53.444;9.902;2023-05-17T12:26:10;5.83;;;1.87;;
3997;SDS011;61314;53.444;9.902;2023-05-17T12:28:38;4.70;;;2.13;;
3997;SDS011;61314;53.444;9.902;2023-05-17T12:31:08;5.57;;;1.77;;
3997;SDS011;61314;53.444;9.902;2023-05-17T12:33:43;12.43;;;2.67;;
3997;SDS011;61314;53.444;9.902;2023-05-17T12:36:13;7.00;;;1.97;;
3997;SDS011;61314;53.444;9.902;2023-05-17T12:38:40;6.03;;;1.77;;
3997;SDS011;61314;53.444;9.902;2023-05-17T12:41:12;8.40;;;1.70;;
3997;SDS011;61314;53.444;9.902;2023-05-17T12:43:40;5.73;;;2.07;;
3997;SDS011;61314;53.444;9.902;2023-05-17T12:46:13;8.03;;;2.00;;
3997;SDS011;61314;53.444;9.902;2023-05-17T12:48:45;7.40;;;2.30;;
3997;SDS011;61314;53.444;9.902;2023-05-17T12:51:13;9.40;;;2.30;;
3997;SDS011;61314;53.444;9.902;2023-05-17T12:53:42;9.97;;;2.43;;
3997;SDS011;61314;53.444;9.902;2023-05-17T12:56:13;6.40;;;2.20;;
3997;SDS011;61314;53.444;9.902;2023-05-17T12:58:41;5.63;;;2.23;;
3997;SDS011;61314;53.444;9.902;2023-05-17T13:01:08;7.97;;;3.50;;
3997;SDS011;61314;53.444;9.902;2023-05-17T13:03:39;7.70;;;2.50;;
3997;SDS011;61314;53.444;9.902;2023-05-17T13:06:07;8.03;;;2.57;;
3997;SDS011;61314;53.444;9.902;2023-05-17T13:08:35;5.87;;;2.47;;
3997;SDS011;61314;53.444;9.902;2023-05-17T13:11:06;8.70;;;1.80;;
3997;SDS011;61314;53.444;9.902;2023-05-17T13:13:33;10.80;;;2.90;;
3997;SDS011;61314;53.444;9.902;2023-05-17T13:16:00;3.53;;;2.00;;
3997;SDS011;61314;53.444;9.902;2023-05-17T13:18:27;8.30;;;3.40;;
3997;SDS011;61314;53.444;9.902;2023-05-17T13:20:55;4.47;;;2.37;;
3997;SDS011;61314;53.444;9.902;2023-05-17T13:23:22;5.87;;;2.27;;
3997;SDS011;61314;53.444;9.902;2023-05-17T13:25:49;5.33;;;1.53;;
3997;SDS011;61314;53.444;9.902;2023-05-17T13:28:16;8.80;;;2.20;;
3997;SDS011;61314;53.444;9.902;2023-05-17T13:30:43;5.10;;;2.00;;
3997;SDS011;61314;53.444;9.902;2023-05-17T13:33:15;6.33;;;2.17;;
3997;SDS011;61314;53.444;9.902;2023-05-17T13:35:42;4.13;;;1.73;;
3997;SDS011;61314;53.444;9.902;2023-05-17T13:38:09;4.30;;;1.73;;
3997;SDS011;61314;53.444;9.902;2023-05-17T13:40:36;8.23;;;1.97;;
3997;SDS011;61314;53.444;9.902;2023-05-17T13:43:03;3.73;;;2.30;;
3997;SDS011;61314;53.444;9.902;2023-05-17T13:45:32;6.77;;;2.27;;
3997;SDS011;61314;53.444;9.902;2023-05-17T13:47:59;5.87;;;2.20;;
3997;SDS011;61314;53.444;9.902;2023-05-17T13:50:26;5.50;;;1.73;;
3997;SDS011;61314;53.444;9.902;2023-05-17T13:52:54;6.87;;;2.00;;
3997;SDS011;61314;53.444;9.902;2023-05-17T13:55:21;5.90;;;1.80;;
3997;SDS011;61314;53.444;9.902;2023-05-17T13:57:48;4.77;;;1.70;;
3997;SDS011;61314;53.444;9.902;2023-05-17T14:00:15;4.90;;;1.87;;
3997;SDS011;61314;53.444;9.902;2023-05-17T14:02:42;8.90;;;2.60;;
3997;SDS011;61314;53.444;9.902;2023-05-17T14:05:10;6.67;;;2.00;;
3997;SDS011;61314;53.444;9.902;2023-05-17T14:07:37;5.20;;;2.23;;
3997;SDS011;61314;53.444;9.902;2023-05-17T14:10:07;5.23;;;1.77;;
3997;SDS011;61314;53.444;9.902;2023-05-17T14:12:34;6.73;;;2.20;;
3997;SDS011;61314;53.444;9.902;2023-05-17T14:15:01;14.20;;;2.27;;
3997;SDS011;61314;53.444;9.902;2023-05-17T14:17:28;6.47;;;2.27;;
3997;SDS011;61314;53.444;9.902;2023-05-17T14:19:55;10.20;;;3.03;;
3997;SDS011;61314;53.444;9.902;2023-05-17T14:22:22;7.33;;;1.97;;
3997;SDS011;61314;53.444;9.902;2023-05-17T14:24:49;12.77;;;2.60;;
3997;SDS011;61314;53.444;9.902;2023-05-17T14:27:16;9.03;;;2.30;;
3997;SDS011;61314;53.444;9.902;2023-05-17T14:29:43;6.33;;;2.23;;
3997;SDS011;61314;53.444;9.902;2023-05-17T14:32:10;10.43;;;2.23;;
3997;SDS011;61314;53.444;9.902;2023-05-17T14:34:39;12.40;;;2.40;;
3997;SDS011;61314;53.444;9.902;2023-05-17T14:37:06;3.90;;;1.97;;
3997;SDS011;61314;53.444;9.902;2023-05-17T14:39:33;8.83;;;1.60;;
3997;SDS011;61314;53.444;9.902;2023-05-17T14:42:00;8.10;;;2.10;;
3997;SDS011;61314;53.444;9.902;2023-05-17T14:44:27;9.03;;;2.63;;
3997;SDS011;61314;53.444;9.902;2023-05-17T14:46:54;10.10;;;2.57;;
3997;SDS011;61314;53.444;9.902;2023-05-17T14:49:21;4.70;;;1.63;;
3997;SDS011;61314;53.444;9.902;2023-05-17T14:51:49;6.73;;;2.13;;
3997;SDS011;61314;53.444;9.902;2023-05-17T14:54:16;6.93;;;2.07;;
3997;SDS011;61314;53.444;9.902;2023-05-17T14:56:43;6.90;;;2.20;;
3997;SDS011;61314;53.444;9.902;2023-05-17T14:59:10;8.80;;;1.83;;
3997;SDS011;61314;53.444;9.902;2023-05-17T15:01:37;8.93;;;2.30;;
3997;SDS011;61314;53.444;9.902;2023-05-17T15:04:04;10.23;;;2.87;;
3997;SDS011;61314;53.444;9.902;2023-05-17T15:06:32;12.70;;;2.50;;
3997;SDS011;61314;53.444;9.902;2023-05-17T15:08:59;11.40;;;1.90;;
3997;SDS011;61314;53.444;9.902;2023-05-17T15:11:27;7.53;;;2.40;;
3997;SDS011;61314;53.444;9.902;2023-05-17T15:13:54;8.57;;;2.47;;
3997;SDS011;61314;53.444;9.902;2023-05-17T15:16:22;8.40;;;2.03;;
3997;SDS011;61314;53.444;9.902;2023-05-17T15:18:49;7.93;;;2.60;;